Morton, MN

5:53 AM CST on March 01, 2015 (GMT -0600)
Redwood Falls Municipal | Change Station
CLOSE
Current Station
Airport
Location: Redwood Falls,
Elevation: 1024 ft
Nearby Weather Stations

Elev 1024 ft 44.55 °N, 95.08 °W | Updated 1 hour ago

Clear
Clear
11 °F
Feels Like -3 °F
N
10
Wind Variable Wind from West

Today
High -- | Low -- °F
--% Chance of Precip.
Yesterday
High -- | Low -- °F
Precip. -- in
6:57 AM 6:07 PM
Waxing Gibbous, 84% visible
Pressure 30.32 in
Visibility 10.0 miles
Clouds Clear
Windchill -3 °F
Dew Point 4 °F
Humidity 73%
Rainfall 0.00 in
Snow Depth Not available.
UV 0 out of 12
Pollen .40 out of 12
Air Quality Not available.
Flu Activity Not available.
METAR KRWF 011053Z AUTO 27009KT 10SM CLR M12/M16 A3025 RMK AO2 SLP265 T11171156

More Conditions Fewer Conditions

Pressure 30.32 in
Visibility 10.0 miles
Clouds Clear
Windchill -3 °F
Dew Point 4 °F
Humidity 73%
Rainfall 0.00 in
Snow Depth Not available.
UV 0 out of 12
Pollen .40 out of 12
Air Quality Not available.
Flu Activity Not available.
METAR KRWF 011053Z AUTO 27009KT 10SM CLR M12/M16 A3025 RMK AO2 SLP265 T11171156

More Conditions Fewer Conditions

10-Day Weather Forecast

Almanac

Astronomy

Mar. 01, 2015 Rise Set
Actual Time
Civil Twilight
Nautical Twilight
Astronomical Twilight
Moon
Length of Visible Light
Length of Day
Tomorrow will be .
, % of the Moon is Illuminated

Today's Extremes

State Highs State Lows

Community

WunderPhotos

Upload Photos

1,801,365 photos uploaded!

WunderBlogs® & News

Nearby

Air Quality

  Air Quality AQ Index Pollutant
Not available.

Snow Depth

Station Depth Elevation

Earthquake Activity

City Distance Mag. Time & Date
Minimum magnitude displayed is 2.5.

Coastal Water Temperatures

Place Temperature

Nearby Weather Stations